Time;durP1;ratioP1;P1;durP2;ratioP2;P2;SDS_P1;SDS_P2;PMS_P1;PMS_P2;Temp;Humidity;BMP_temperature;BMP_pressure;BME280_temperature;BME280_humidity;BME280_pressure;Samples;Min_cycle;Max_cycle;Signal;HPM_P1;HPM_P2
2021/01/06 00:00:56;;;;;;;32.50;18.55;;;3.10;99.90;;;;;;4181850;28;20116;-80
2021/01/06 00:02:56;;;;;;;27.83;17.75;;;3.10;99.90;;;;;;4158326;28;20052;-80
2021/01/06 00:04:57;;;;;;;31.88;18.88;;;3.10;99.90;;;;;;4177705;28;20029;-80
2021/01/06 00:06:57;;;;;;;33.05;19.52;;;3.10;99.90;;;;;;4181832;28;20025;-79
2021/01/06 00:08:58;;;;;;;33.70;19.17;;;3.10;99.90;;;;;;4181605;28;20056;-80
2021/01/06 00:11:00;;;;;;;32.72;17.48;;;3.10;99.90;;;;;;4181590;28;20480;-79
2021/01/06 00:13:01;;;;;;;31.27;17.92;;;3.10;99.90;;;;;;4181232;28;20025;-79
2021/01/06 00:15:03;;;;;;;40.00;19.70;;;3.10;99.90;;;;;;4163469;28;20060;-80
2021/01/06 00:17:04;;;;;;;33.53;18.35;;;3.10;99.90;;;;;;4180088;28;20025;-80
2021/01/06 00:19:06;;;;;;;29.20;19.45;;;3.00;99.90;;;;;;4180170;28;20365;-79
2021/01/06 00:21:06;;;;;;;30.63;18.10;;;3.10;99.90;;;;;;4163673;28;20025;-78
2021/01/06 00:23:07;;;;;;;35.88;17.85;;;3.10;99.90;;;;;;4180178;28;20112;-79
2021/01/06 00:25:15;;;;;;;31.75;18.73;;;3.10;99.90;;;;;;4181434;28;20432;-80
2021/01/06 00:27:16;;;;;;;31.73;18.40;;;3.10;99.90;;;;;;4180971;28;20017;-80
2021/01/06 00:29:16;;;;;;;32.97;18.90;;;3.10;99.90;;;;;;4163468;28;20055;-80
2021/01/06 00:31:17;;;;;;;29.83;17.80;;;3.10;99.90;;;;;;4180761;28;20400;-80
2021/01/06 00:33:23;;;;;;;36.78;18.08;;;3.10;99.90;;;;;;4179589;28;20029;-80
2021/01/06 00:35:25;;;;;;;29.63;17.83;;;3.10;99.90;;;;;;4180302;28;20468;-79
2021/01/06 00:37:26;;;;;;;30.50;17.38;;;3.10;99.90;;;;;;4181311;28;20373;-80
2021/01/06 00:39:26;;;;;;;29.90;18.42;;;3.10;99.90;;;;;;4173995;28;20061;-80
2021/01/06 00:41:32;;;;;;;26.70;16.65;;;3.10;99.90;;;;;;4180737;28;20052;-80
2021/01/06 00:43:32;;;;;;;26.35;16.83;;;3.10;99.90;;;;;;4159074;28;20038;-80
2021/01/06 00:45:34;;;;;;;27.42;16.88;;;3.10;99.90;;;;;;4153866;28;20088;-80
2021/01/06 00:47:35;;;;;;;25.38;16.45;;;3.10;99.90;;;;;;4181370;28;20388;-80
2021/01/06 00:49:36;;;;;;;27.55;17.33;;;3.10;99.90;;;;;;4181113;28;20127;-80
2021/01/06 00:51:36;;;;;;;26.95;15.43;;;3.10;99.90;;;;;;4180720;28;20037;-79
2021/01/06 00:53:37;;;;;;;28.55;16.92;;;3.10;99.90;;;;;;4166511;28;20349;-78
2021/01/06 00:55:37;;;;;;;27.58;16.52;;;3.10;99.90;;;;;;4174065;28;20084;-80
2021/01/06 00:57:38;;;;;;;29.30;17.95;;;3.10;99.90;;;;;;4163018;28;20443;-80
2021/01/06 00:59:39;;;;;;;25.00;17.08;;;3.10;99.90;;;;;;4162742;28;20040;-80
2021/01/06 01:01:39;;;;;;;26.25;15.73;;;3.10;99.90;;;;;;4180677;28;20362;-80
2021/01/06 01:03:40;;;;;;;27.23;17.33;;;3.00;99.90;;;;;;4180395;28;20528;-80
2021/01/06 01:05:41;;;;;;;25.58;16.65;;;3.10;99.90;;;;;;4180788;28;20029;-79
2021/01/06 01:07:41;;;;;;;25.48;16.05;;;3.10;99.90;;;;;;4177126;28;20040;-79
2021/01/06 01:09:45;;;;;;;23.73;16.55;;;3.10;99.90;;;;;;4161695;28;20033;-79
2021/01/06 01:11:46;;;;;;;;;;;3.10;99.90;;;;;;4178954;28;20033;-79
2021/01/06 01:13:46;;;;;;;24.83;14.52;;;3.10;99.90;;;;;;4157593;28;19941;-79
2021/01/06 01:15:51;;;;;;;24.88;15.18;;;3.10;99.90;;;;;;4178357;28;20549;-79
2021/01/06 01:17:52;;;;;;;24.33;16.08;;;3.10;99.90;;;;;;4178029;28;20017;-79
2021/01/06 01:19:52;;;;;;;25.20;16.30;;;3.00;99.90;;;;;;4170407;28;20079;-80
2021/01/06 01:21:53;;;;;;;26.55;16.48;;;3.00;99.90;;;;;;4162124;28;20025;-79
2021/01/06 01:23:54;;;;;;;24.33;16.02;;;3.00;99.90;;;;;;4160795;28;20033;-79
2021/01/06 01:25:56;;;;;;;23.75;14.65;;;3.00;99.90;;;;;;4178860;28;20384;-80
2021/01/06 01:27:57;;;;;;;24.00;15.82;;;3.00;99.90;;;;;;4180162;28;20400;-80
2021/01/06 01:29:57;;;;;;;24.52;17.40;;;3.00;99.90;;;;;;4179403;28;20025;-80
2021/01/06 01:31:58;;;;;;;22.80;15.20;;;3.00;99.90;;;;;;4162452;28;20018;-80
2021/01/06 01:33:59;;;;;;;22.35;15.07;;;3.00;99.90;;;;;;4180287;28;20029;-80
2021/01/06 01:36:00;;;;;;;23.33;15.38;;;3.00;99.90;;;;;;4161128;28;20384;-80
2021/01/06 01:38:03;;;;;;;21.73;14.55;;;3.00;99.90;;;;;;4179944;28;20020;-80
2021/01/06 01:40:04;;;;;;;23.00;13.52;;;3.00;99.90;;;;;;4179789;28;20025;-80
2021/01/06 01:42:05;;;;;;;19.75;13.50;;;3.00;99.90;;;;;;4176865;28;20033;-80
2021/01/06 01:44:06;;;;;;;20.45;14.60;;;3.00;99.90;;;;;;4173722;28;20021;-81
2021/01/06 01:46:07;;;;;;;23.10;15.15;;;3.00;99.90;;;;;;4180069;28;20041;-79
2021/01/06 01:48:17;;;;;;;22.52;14.48;;;3.00;99.90;;;;;;4160215;28;20025;-79
2021/01/06 01:50:19;;;;;;;19.45;13.90;;;3.00;99.90;;;;;;4162479;28;20046;-79
2021/01/06 01:52:34;;;;;;;20.43;13.63;;;3.00;99.90;;;;;;4162245;28;20052;-80
2021/01/06 01:54:35;;;;;;;21.98;12.48;;;3.00;99.90;;;;;;4180275;28;20271;-81
2021/01/06 01:56:39;;;;;;;21.92;14.18;;;3.00;99.90;;;;;;4179815;28;20025;-80
2021/01/06 01:58:43;;;;;;;20.52;12.90;;;3.00;99.90;;;;;;4179875;28;20041;-81
2021/01/06 02:00:44;;;;;;;16.48;12.73;;;2.90;99.90;;;;;;4161108;28;20038;-80
2021/01/06 02:03:27;;;;;;;19.85;13.70;;;2.90;99.90;;;;;;4179646;28;20396;-80
2021/01/06 02:05:33;;;;;;;18.20;13.00;;;2.90;99.90;;;;;;4179496;28;20082;-80
2021/01/06 02:07:39;;;;;;;17.77;12.80;;;2.90;99.90;;;;;;4180039;28;20104;-80
2021/01/06 02:09:47;;;;;;;18.38;13.00;;;2.90;99.90;;;;;;4162175;28;20080;-80
2021/01/06 02:12:02;;;;;;;19.85;13.82;;;2.90;99.90;;;;;;4179635;28;20025;-81
2021/01/06 02:14:08;;;;;;;21.73;14.50;;;2.90;99.90;;;;;;4161723;28;20056;-79
2021/01/06 02:16:25;;;;;;;21.23;13.88;;;2.90;99.90;;;;;;4179567;28;20375;-79
2021/01/06 02:18:25;;;;;;;19.23;13.48;;;2.90;99.90;;;;;;4162052;28;20143;-80
2021/01/06 02:20:27;;;;;;;22.23;13.77;;;2.90;99.90;;;;;;4161745;28;20033;-80
2021/01/06 02:22:28;;;;;;;21.88;14.80;;;2.80;99.90;;;;;;4179541;28;20429;-80
2021/01/06 02:24:29;;;;;;;18.83;12.90;;;2.80;99.90;;;;;;4179724;28;20021;-79
2021/01/06 02:26:30;;;;;;;17.88;13.50;;;2.80;99.90;;;;;;4161911;28;20160;-80
2021/01/06 02:28:30;;;;;;;18.33;12.60;;;2.80;99.90;;;;;;4179579;28;20029;-80
2021/01/06 02:30:32;;;;;;;19.17;13.50;;;2.80;99.90;;;;;;4161317;28;20392;-80
2021/01/06 02:32:33;;;;;;;18.13;12.25;;;2.80;99.90;;;;;;4179703;28;20033;-79
2021/01/06 02:34:39;;;;;;;20.25;13.00;;;2.80;99.90;;;;;;4178981;28;20029;-79
2021/01/06 02:36:40;;;;;;;19.33;13.73;;;2.80;99.90;;;;;;4179265;28;20025;-79
2021/01/06 02:38:42;;;;;;;18.13;15.10;;;2.80;99.90;;;;;;4179385;28;20025;-79
2021/01/06 02:40:43;;;;;;;17.45;12.52;;;2.80;99.90;;;;;;4178943;28;20543;-79
2021/01/06 02:42:44;;;;;;;21.55;14.15;;;2.80;99.90;;;;;;4179458;28;20029;-79
2021/01/06 02:44:45;;;;;;;19.65;13.13;;;2.80;99.90;;;;;;4179155;28;20063;-79
2021/01/06 02:46:46;;;;;;;19.48;13.27;;;2.80;99.90;;;;;;4161722;28;20033;-79
2021/01/06 02:48:47;;;;;;;17.38;12.00;;;2.80;99.90;;;;;;4178850;28;20035;-79
2021/01/06 02:50:51;;;;;;;19.52;12.85;;;2.80;99.90;;;;;;4161675;28;20076;-79
2021/01/06 02:53:01;;;;;;;18.02;13.35;;;2.80;99.90;;;;;;4161422;28;20500;-80
2021/01/06 02:55:06;;;;;;;18.77;13.30;;;2.80;99.90;;;;;;4161264;28;20029;-78
2021/01/06 02:57:08;;;;;;;20.45;13.45;;;2.80;99.90;;;;;;4178869;28;20032;-79
2021/01/06 02:59:13;;;;;;;18.52;12.98;;;2.80;99.90;;;;;;4161395;28;20362;-79
2021/01/06 03:01:23;;;;;;;18.10;12.40;;;2.80;99.90;;;;;;4161527;28;20026;-80
2021/01/06 03:03:29;;;;;;;19.52;13.00;;;2.80;99.90;;;;;;4161341;28;20033;-80
2021/01/06 03:05:39;;;;;;;18.63;13.15;;;2.80;99.90;;;;;;4178699;28;20033;-79
2021/01/06 03:07:41;;;;;;;18.30;12.60;;;2.80;99.90;;;;;;4177816;28;20021;-80
2021/01/06 03:09:43;;;;;;;18.40;12.50;;;2.80;99.90;;;;;;4179234;28;20025;-79
2021/01/06 03:11:44;;;;;;;17.27;12.88;;;2.70;99.90;;;;;;4179104;28;20033;-79
2021/01/06 03:13:44;;;;;;;17.92;12.68;;;2.70;99.90;;;;;;4179355;28;20029;-79
2021/01/06 03:15:46;;;;;;;20.77;13.38;;;2.80;99.90;;;;;;4179130;28;20029;-80
2021/01/06 03:17:47;;;;;;;19.05;12.43;;;2.70;99.90;;;;;;4178731;28;20052;-80
2021/01/06 03:19:54;;;;;;;18.92;13.20;;;2.80;99.90;;;;;;4179062;28;20025;-80
2021/01/06 03:21:57;;;;;;;16.70;12.57;;;2.70;99.90;;;;;;4178766;28;20063;-81
2021/01/06 03:24:00;;;;;;;18.60;13.25;;;2.70;99.90;;;;;;4178510;28;20380;-79
2021/01/06 03:26:05;;;;;;;21.60;13.20;;;2.70;99.90;;;;;;4179100;28;20100;-79
2021/01/06 03:28:05;;;;;;;19.25;12.48;;;2.70;99.90;;;;;;4160653;28;20049;-81
2021/01/06 03:30:13;;;;;;;18.50;13.65;;;2.70;99.90;;;;;;4178906;28;20412;-79
2021/01/06 03:32:30;;;;;;;17.70;12.75;;;2.70;99.90;;;;;;4179069;28;20025;-80
2021/01/06 03:34:37;;;;;;;19.48;12.48;;;2.70;99.90;;;;;;4179156;28;20033;-80
2021/01/06 03:36:44;;;;;;;17.52;12.50;;;2.70;99.90;;;;;;4161259;28;20033;-80
2021/01/06 03:38:48;;;;;;;17.15;12.35;;;2.70;99.90;;;;;;4179316;28;20108;-80
2021/01/06 03:40:51;;;;;;;24.23;13.50;;;2.70;99.90;;;;;;4179506;28;20491;-80
2021/01/06 03:42:54;;;;;;;18.33;12.43;;;2.70;99.90;;;;;;4160810;28;20041;-80
2021/01/06 03:44:55;;;;;;;25.48;13.50;;;2.70;99.90;;;;;;4175705;28;20504;-80
2021/01/06 03:47:13;;;;;;;19.13;12.98;;;2.70;99.90;;;;;;4160450;28;20516;-80
2021/01/06 03:49:38;;;;;;;20.30;13.23;;;2.60;99.90;;;;;;4178576;28;20041;-79
2021/01/06 03:51:44;;;;;;;18.10;12.77;;;2.70;99.90;;;;;;4159168;28;20076;-80
2021/01/06 03:53:48;;;;;;;19.60;12.45;;;2.60;99.90;;;;;;4163794;28;20030;-80
2021/01/06 03:55:52;;;;;;;18.15;12.50;;;2.70;99.90;;;;;;4181443;28;20029;-79
2021/01/06 03:57:55;;;;;;;21.27;14.55;;;2.70;99.90;;;;;;4181523;28;20041;-80
2021/01/06 03:59:58;;;;;;;20.85;12.57;;;2.60;99.90;;;;;;4163734;28;20112;-79
2021/01/06 04:02:11;;;;;;;17.73;12.50;;;2.60;99.90;;;;;;4181404;28;20036;-81
2021/01/06 04:04:17;;;;;;;22.13;15.40;;;2.60;99.90;;;;;;4181026;28;20040;-79
2021/01/06 04:06:21;;;;;;;21.58;13.52;;;2.60;99.90;;;;;;4181778;28;20017;-79
2021/01/06 04:08:32;;;;;;;20.55;14.57;;;2.60;99.90;;;;;;4181754;28;20460;-79
2021/01/06 04:10:40;;;;;;;17.38;12.18;;;2.60;99.90;;;;;;4182042;28;20025;-80
2021/01/06 04:12:41;;;;;;;22.65;12.18;;;2.60;99.90;;;;;;4164013;28;20025;-80
2021/01/06 04:14:42;;;;;;;20.42;14.05;;;2.60;99.90;;;;;;4163615;28;20545;-79
2021/01/06 04:16:43;;;;;;;20.85;13.80;;;2.60;99.90;;;;;;4163969;28;20032;-79
2021/01/06 04:18:45;;;;;;;21.08;13.25;;;2.60;99.90;;;;;;4181181;28;20484;-79
2021/01/06 04:20:45;;;;;;;18.13;13.30;;;2.60;99.90;;;;;;4181003;28;20037;-80
2021/01/06 04:22:51;;;;;;;20.73;12.63;;;2.50;99.90;;;;;;4180706;28;20085;-80
2021/01/06 04:24:51;;;;;;;18.35;12.07;;;2.60;99.90;;;;;;4163755;28;20030;-80
2021/01/06 04:26:52;;;;;;;20.35;12.93;;;2.60;99.90;;;;;;4181609;28;20491;-80
2021/01/06 04:28:53;;;;;;;17.73;12.40;;;2.60;99.90;;;;;;4181343;28;20365;-80
2021/01/06 04:30:58;;;;;;;21.33;13.88;;;2.50;99.90;;;;;;4181388;28;20033;-80
2021/01/06 04:33:01;;;;;;;18.08;12.93;;;2.50;99.90;;;;;;4181146;28;20033;-80
2021/01/06 04:35:06;;;;;;;16.67;11.55;;;2.50;99.90;;;;;;4180731;28;20033;-79
2021/01/06 04:37:07;;;;;;;18.13;13.18;;;2.50;99.90;;;;;;4180878;28;20082;-79
2021/01/06 04:39:08;;;;;;;18.13;11.82;;;2.50;99.90;;;;;;4180630;28;20052;-79
2021/01/06 04:41:27;;;;;;;22.25;12.60;;;2.50;99.90;;;;;;4181120;28;20071;-80
2021/01/06 04:43:51;;;;;;;17.70;12.80;;;2.50;99.90;;;;;;4180986;28;20025;-80
2021/01/06 04:46:17;;;;;;;19.23;12.18;;;2.50;99.90;;;;;;4163479;28;20057;-80
2021/01/06 04:48:56;;;;;;;17.13;11.82;;;2.50;99.90;;;;;;4161127;28;20033;-80
2021/01/06 04:51:37;;;;;;;17.75;11.02;;;2.50;99.90;;;;;;4130000;28;20038;-80
2021/01/06 04:54:02;;;;;;;17.63;11.15;;;2.50;99.90;;;;;;4161264;28;20108;-80
2021/01/06 04:56:12;;;;;;;16.35;11.65;;;2.50;99.90;;;;;;4180304;28;20029;-79
2021/01/06 04:58:24;;;;;;;16.73;12.38;;;2.50;99.90;;;;;;4180609;28;20047;-80
2021/01/06 05:00:33;;;;;;;18.83;12.05;;;2.50;99.90;;;;;;4180795;28;20037;-80
2021/01/06 05:02:52;;;;;;;19.77;11.65;;;2.50;99.90;;;;;;4180739;28;20041;-80
2021/01/06 05:05:23;;;;;;;16.98;11.20;;;2.50;99.90;;;;;;4179674;28;20174;-80
2021/01/06 05:08:05;;;;;;;17.20;11.82;;;2.50;99.90;;;;;;4163018;28;20373;-80
2021/01/06 05:10:19;;;;;;;19.83;12.05;;;2.50;99.90;;;;;;4170665;28;20043;-79
2021/01/06 05:12:25;;;;;;;;;;;2.40;99.90;;;;;;4169138;28;20034;-80
2021/01/06 05:14:32;;;;;;;19.27;12.07;;;2.40;99.90;;;;;;4173961;28;20499;-80
2021/01/06 05:16:50;;;;;;;16.20;11.95;;;2.40;99.90;;;;;;4179059;28;20025;-80
2021/01/06 05:18:51;;;;;;;22.10;12.00;;;2.50;99.90;;;;;;4178672;28;20384;-80
2021/01/06 05:20:53;;;;;;;18.38;12.15;;;2.40;99.90;;;;;;4178728;28;20051;-80
2021/01/06 05:22:54;;;;;;;21.92;12.23;;;2.40;99.90;;;;;;4178772;28;20124;-81
2021/01/06 05:24:55;;;;;;;14.60;11.38;;;2.40;99.90;;;;;;4139692;28;20022;-80
2021/01/06 05:27:13;;;;;;;17.13;11.65;;;2.40;99.90;;;;;;4152140;28;20029;-79
2021/01/06 05:29:23;;;;;;;19.23;11.05;;;2.40;99.90;;;;;;4162593;28;20018;-79
2021/01/06 05:31:24;;;;;;;15.70;11.27;;;2.40;99.90;;;;;;4175352;28;20121;-79
2021/01/06 05:33:45;;;;;;;16.80;11.63;;;2.40;99.90;;;;;;4173185;28;20468;-79
2021/01/06 05:35:47;;;;;;;23.95;12.20;;;2.40;99.90;;;;;;4180136;28;20069;-79
2021/01/06 05:38:00;;;;;;;15.85;11.48;;;2.40;99.90;;;;;;4161645;28;20061;-79
2021/01/06 05:40:11;;;;;;;16.83;11.77;;;2.50;99.90;;;;;;4156088;28;20556;-79
2021/01/06 05:42:34;;;;;;;17.63;12.02;;;2.40;99.90;;;;;;4155050;28;20127;-79
2021/01/06 05:44:35;;;;;;;16.98;11.00;;;2.40;99.90;;;;;;4162024;28;20025;-79
2021/01/06 05:46:38;;;;;;;19.55;10.80;;;2.40;99.90;;;;;;4161960;28;20025;-80
2021/01/06 05:49:02;;;;;;;18.75;11.80;;;2.40;99.90;;;;;;4179843;28;20013;-79
2021/01/06 05:51:25;;;;;;;19.17;11.68;;;2.40;99.90;;;;;;4179275;28;20021;-79
2021/01/06 05:53:43;;;;;;;17.73;11.75;;;2.40;99.90;;;;;;4170351;28;20388;-80
2021/01/06 05:55:52;;;;;;;15.65;11.55;;;2.40;99.90;;;;;;4169219;28;20135;-80
2021/01/06 05:58:09;;;;;;;15.50;11.07;;;2.40;99.90;;;;;;4162322;28;20488;-81
2021/01/06 06:00:40;;;;;;;14.25;9.80;;;2.40;99.90;;;;;;4179677;28;20025;-79
2021/01/06 06:03:13;;;;;;;14.07;9.80;;;2.40;99.90;;;;;;4179591;28;20033;-79
2021/01/06 06:05:30;;;;;;;16.10;11.23;;;2.40;99.90;;;;;;4128430;28;20077;-80
2021/01/06 06:07:41;;;;;;;17.85;11.00;;;2.40;99.90;;;;;;4176775;28;20037;-81
2021/01/06 06:10:00;;;;;;;15.60;10.35;;;2.40;99.90;;;;;;4179868;28;20108;-80
2021/01/06 06:12:15;;;;;;;15.63;10.60;;;2.40;99.90;;;;;;4179959;28;20029;-80
2021/01/06 06:14:34;;;;;;;16.73;11.13;;;2.40;99.90;;;;;;4179516;28;20416;-80
2021/01/06 06:16:51;;;;;;;17.20;11.70;;;2.40;99.90;;;;;;4179586;28;20033;-81
2021/01/06 06:19:10;;;;;;;15.80;11.70;;;2.30;99.90;;;;;;4179801;28;20047;-80
2021/01/06 06:21:50;;;;;;;14.95;10.80;;;2.40;99.90;;;;;;4179590;28;20557;-80
2021/01/06 06:24:18;;;;;;;19.42;11.07;;;2.30;99.90;;;;;;4177843;28;20127;-81
2021/01/06 06:26:57;;;;;;;16.75;10.85;;;2.30;99.90;;;;;;4179135;28;20031;-81
2021/01/06 06:29:04;;;;;;;15.90;11.15;;;2.30;99.90;;;;;;4179150;28;20033;-81
2021/01/06 06:31:31;;;;;;;13.95;10.32;;;2.30;99.90;;;;;;4179266;28;20087;-81
2021/01/06 06:33:33;;;;;;;15.07;11.30;;;2.30;99.90;;;;;;4161726;28;20026;-81
2021/01/06 06:35:37;;;;;;;17.23;10.85;;;2.30;99.90;;;;;;4161914;28;20083;-81
2021/01/06 06:37:54;;;;;;;14.70;10.93;;;2.30;99.90;;;;;;4179225;28;20365;-79
2021/01/06 06:39:57;;;;;;;15.15;10.68;;;2.30;99.90;;;;;;4179736;28;20033;-81
2021/01/06 06:42:15;;;;;;;16.05;11.60;;;2.30;99.90;;;;;;4183642;28;20419;-79
2021/01/06 06:44:28;;;;;;;16.17;11.77;;;2.30;99.90;;;;;;4167689;28;20025;-80
2021/01/06 06:46:43;;;;;;;16.27;11.43;;;2.30;99.90;;;;;;4173119;28;20029;-80
2021/01/06 06:49:17;;;;;;;20.98;12.18;;;2.30;99.90;;;;;;4176658;28;20029;-80
2021/01/06 06:51:25;;;;;;;18.37;11.10;;;2.20;99.90;;;;;;4152933;28;20035;-79
2021/01/06 06:53:44;;;;;;;16.33;11.32;;;2.20;99.90;;;;;;4147791;28;20026;-79
2021/01/06 06:56:14;;;;;;;15.93;11.20;;;2.20;99.90;;;;;;4171134;28;20022;-80
2021/01/06 06:58:22;;;;;;;17.48;11.07;;;2.30;99.90;;;;;;4150466;28;20513;-79
2021/01/06 07:00:26;;;;;;;16.95;10.60;;;2.30;99.90;;;;;;4145206;28;20114;-80
2021/01/06 07:02:27;;;;;;;14.48;11.23;;;2.30;99.90;;;;;;4175940;28;20101;-80
2021/01/06 07:04:31;;;;;;;15.48;10.60;;;2.30;99.90;;;;;;4165946;28;20080;-79
2021/01/06 07:06:34;;;;;;;16.25;10.93;;;2.30;99.90;;;;;;4165976;28;20111;-79
2021/01/06 07:08:48;;;;;;;16.42;10.55;;;2.30;99.90;;;;;;4173946;28;20500;-79
2021/01/06 07:11:18;;;;;;;16.70;11.15;;;2.30;99.90;;;;;;4158314;28;20033;-80
2021/01/06 07:13:20;;;;;;;15.70;10.35;;;2.30;99.90;;;;;;4139817;28;20030;-79
2021/01/06 07:15:24;;;;;;;16.08;11.52;;;2.20;99.90;;;;;;4146429;28;20034;-79
2021/01/06 07:17:37;;;;;;;16.33;10.75;;;2.20;99.90;;;;;;4146027;28;20470;-80
2021/01/06 07:19:50;;;;;;;15.60;11.15;;;2.10;99.90;;;;;;4149749;28;20425;-79
2021/01/06 07:22:17;;;;;;;16.03;11.33;;;2.10;99.90;;;;;;4156651;28;20121;-80
2021/01/06 07:24:23;;;;;;;21.42;11.73;;;2.10;99.90;;;;;;4150389;28;20033;-79
2021/01/06 07:26:41;;;;;;;23.73;10.93;;;2.10;99.90;;;;;;4160814;28;20465;-79
2021/01/06 07:28:42;;;;;;;27.67;12.50;;;2.20;99.90;;;;;;4175990;28;20105;-80
2021/01/06 07:30:48;;;;;;;15.18;10.70;;;2.20;99.90;;;;;;4164805;28;20024;-79
2021/01/06 07:32:51;;;;;;;15.73;10.45;;;2.20;99.90;;;;;;4163233;28;20021;-80
2021/01/06 07:34:56;;;;;;;20.70;11.55;;;2.30;99.90;;;;;;4180431;28;20072;-79
2021/01/06 07:37:01;;;;;;;17.48;10.63;;;2.30;99.90;;;;;;4180631;28;20534;-79
2021/01/06 07:39:02;;;;;;;18.10;10.60;;;2.40;99.90;;;;;;4147155;28;20112;-79
2021/01/06 07:41:03;;;;;;;15.85;9.93;;;2.40;99.90;;;;;;4151824;28;20105;-79
2021/01/06 07:43:07;;;;;;;17.75;10.82;;;2.40;99.90;;;;;;4150172;28;20084;-79
2021/01/06 07:45:26;;;;;;;14.48;9.55;;;2.40;99.90;;;;;;4139963;28;20041;-80
2021/01/06 07:47:29;;;;;;;17.75;12.65;;;2.40;99.90;;;;;;4163999;28;20029;-80
2021/01/06 07:49:48;;;;;;;18.23;11.95;;;2.40;99.90;;;;;;4147097;28;20395;-79
2021/01/06 07:52:16;;;;;;;14.80;10.02;;;2.40;99.90;;;;;;4160703;28;20042;-79
2021/01/06 07:54:30;;;;;;;15.77;9.38;;;2.50;99.90;;;;;;4181489;28;20021;-80
2021/01/06 07:56:40;;;;;;;14.65;10.55;;;2.40;99.90;;;;;;4181772;28;20045;-79
2021/01/06 07:58:44;;;;;;;16.17;10.77;;;2.50;99.90;;;;;;4181718;28;20052;-79
2021/01/06 08:00:54;;;;;;;15.50;10.63;;;2.50;99.90;;;;;;4181667;28;20073;-80
2021/01/06 08:03:05;;;;;;;15.70;10.07;;;2.50;99.90;;;;;;4170335;28;20048;-80
2021/01/06 08:05:28;;;;;;;19.35;10.93;;;2.50;99.90;;;;;;4161506;28;20029;-80
2021/01/06 08:07:29;;;;;;;17.08;10.73;;;2.50;99.90;;;;;;4180823;28;20025;-80
2021/01/06 08:09:39;;;;;;;15.82;10.10;;;2.50;99.90;;;;;;4171144;28;20029;-81
2021/01/06 08:11:47;;;;;;;18.00;11.98;;;2.50;99.90;;;;;;4174322;28;20044;-81
2021/01/06 08:13:48;;;;;;;15.85;10.45;;;2.50;99.90;;;;;;4172244;28;20033;-82
2021/01/06 08:15:53;;;;;;;16.55;11.13;;;2.50;99.90;;;;;;4179371;28;20404;-79
2021/01/06 08:18:24;;;;;;;23.20;10.90;;;2.50;99.90;;;;;;4177989;28;20544;-81
2021/01/06 08:20:28;;;;;;;15.10;10.13;;;2.50;99.90;;;;;;4181263;28;20117;-81
2021/01/06 08:22:41;;;;;;;19.33;11.45;;;2.50;99.90;;;;;;4181451;28;20467;-81
2021/01/06 08:25:04;;;;;;;25.33;12.82;;;2.50;99.90;;;;;;4179237;28;20029;-80
2021/01/06 08:27:14;;;;;;;25.45;15.18;;;2.50;99.90;;;;;;4179472;28;20118;-80
2021/01/06 08:29:28;;;;;;;20.90;12.27;;;2.50;99.90;;;;;;4179808;28;20060;-79
2021/01/06 08:31:35;;;;;;;22.38;14.10;;;2.60;99.90;;;;;;4180502;28;20094;-79
2021/01/06 08:33:55;;;;;;;25.92;14.35;;;2.60;99.90;;;;;;4160679;28;20045;-80
2021/01/06 08:36:00;;;;;;;29.52;17.13;;;2.50;99.90;;;;;;4180333;28;20033;-80
2021/01/06 08:38:01;;;;;;;22.60;15.65;;;2.50;99.90;;;;;;4176365;28;20033;-79
2021/01/06 08:40:06;;;;;;;23.80;14.60;;;2.60;99.90;;;;;;4178281;28;20110;-79
2021/01/06 08:42:10;;;;;;;22.95;14.45;;;2.60;99.90;;;;;;4174059;28;20131;-80
2021/01/06 08:44:28;;;;;;;21.35;13.70;;;2.60;99.90;;;;;;4153605;28;20021;-80
2021/01/06 08:46:34;;;;;;;22.52;12.88;;;2.60;99.90;;;;;;4176042;28;20033;-80
2021/01/06 08:48:36;;;;;;;20.20;12.60;;;2.60;99.90;;;;;;4179004;28;20029;-80
2021/01/06 08:50:39;;;;;;;15.48;11.45;;;2.60;99.90;;;;;;4180790;28;20052;-81
2021/01/06 08:52:41;;;;;;;20.13;12.27;;;2.60;99.90;;;;;;4162460;28;20045;-80
2021/01/06 08:54:44;;;;;;;16.73;11.20;;;2.50;99.90;;;;;;4173325;28;20117;-80
2021/01/06 08:56:59;;;;;;;18.83;13.77;;;2.50;99.90;;;;;;4159582;28;20029;-80
2021/01/06 08:59:00;;;;;;;17.17;10.30;;;2.60;99.90;;;;;;4162668;28;20120;-81
2021/01/06 09:01:02;;;;;;;19.63;13.45;;;2.60;99.90;;;;;;4179963;28;20380;-80
2021/01/06 09:03:27;;;;;;;19.55;12.77;;;2.60;99.90;;;;;;4178046;28;20515;-79
2021/01/06 09:06:01;;;;;;;17.27;12.95;;;2.60;99.90;;;;;;4180091;28;20021;-80
2021/01/06 09:08:13;;;;;;;16.27;11.38;;;2.60;99.90;;;;;;4159343;28;20116;-80
2021/01/06 09:10:29;;;;;;;17.52;11.30;;;2.70;99.90;;;;;;4175647;28;20032;-80
2021/01/06 09:12:38;;;;;;;18.23;12.18;;;2.70;99.90;;;;;;4171738;28;20045;-79
2021/01/06 09:14:42;;;;;;;21.25;11.05;;;2.70;99.90;;;;;;4172958;28;20116;-80
2021/01/06 09:16:48;;;;;;;20.45;12.57;;;2.60;99.90;;;;;;4178431;28;20031;-80
2021/01/06 09:19:18;;;;;;;22.95;12.40;;;2.70;99.90;;;;;;4178111;28;20052;-79
2021/01/06 09:21:25;;;;;;;16.27;11.45;;;2.70;99.90;;;;;;4176456;28;20037;-80
2021/01/06 09:23:26;;;;;;;15.45;10.40;;;2.70;99.90;;;;;;4158865;28;20038;-81
2021/01/06 09:25:28;;;;;;;18.27;12.70;;;2.80;99.90;;;;;;4158866;28;20039;-81
2021/01/06 09:27:41;;;;;;;21.15;13.57;;;2.80;99.90;;;;;;4176639;28;20705;-81
2021/01/06 09:29:42;;;;;;;17.75;11.75;;;2.80;99.90;;;;;;4176327;28;20067;-80
2021/01/06 09:32:11;;;;;;;22.20;13.48;;;2.70;99.90;;;;;;4174737;28;20510;-80
2021/01/06 09:34:20;;;;;;;22.88;13.65;;;2.70;99.90;;;;;;4158971;28;20033;-80
2021/01/06 09:36:23;;;;;;;20.10;12.43;;;2.70;99.90;;;;;;4150968;28;20044;-80
2021/01/06 09:38:34;;;;;;;24.07;13.43;;;2.70;99.90;;;;;;4163363;28;20499;-80
2021/01/06 09:40:37;;;;;;;22.33;12.95;;;2.80;99.90;;;;;;4178951;28;20276;-80
2021/01/06 09:42:40;;;;;;;19.57;11.73;;;2.80;99.90;;;;;;4162014;28;20045;-80
2021/01/06 09:44:41;;;;;;;16.77;12.27;;;2.80;99.90;;;;;;4177803;28;21179;-80
2021/01/06 09:46:55;;;;;;;18.58;12.18;;;2.80;99.90;;;;;;4158824;28;20685;-80
2021/01/06 09:49:14;;;;;;;17.00;11.73;;;2.80;99.90;;;;;;4151775;28;20034;-80
2021/01/06 09:51:18;;;;;;;16.98;11.27;;;2.80;99.90;;;;;;4176697;28;20049;-80
2021/01/06 09:53:23;;;;;;;20.27;13.15;;;2.80;99.90;;;;;;4179487;28;20078;-80
2021/01/06 09:55:26;;;;;;;15.20;11.48;;;2.80;99.90;;;;;;4179302;28;20368;-79
2021/01/06 09:57:28;;;;;;;;;;;2.90;99.90;;;;;;4178305;28;20108;-80
2021/01/06 09:59:35;;;;;;;14.07;10.98;;;2.90;99.90;;;;;;4143900;28;19913;-79
2021/01/06 10:01:48;;;;;;;16.77;11.95;;;2.90;99.90;;;;;;4175083;28;20025;-79
2021/01/06 10:03:51;;;;;;;21.23;13.30;;;3.00;99.90;;;;;;4160182;28;20036;-80
2021/01/06 10:06:24;;;;;;;17.23;10.38;;;3.00;99.90;;;;;;4160178;28;20029;-80
2021/01/06 10:08:43;;;;;;;17.58;10.80;;;3.00;99.90;;;;;;4173922;28;20381;-80
2021/01/06 10:10:47;;;;;;;20.95;12.73;;;2.90;99.90;;;;;;4178581;28;20049;-80
2021/01/06 10:12:54;;;;;;;15.73;11.82;;;2.90;99.90;;;;;;4159559;28;20112;-80
2021/01/06 10:15:33;;;;;;;15.82;11.60;;;2.90;99.90;;;;;;4178327;28;20083;-81
2021/01/06 10:18:18;;;;;;;14.48;9.85;;;2.90;99.90;;;;;;4177538;28;20033;-80
2021/01/06 10:20:43;;;;;;;13.32;10.02;;;2.90;99.90;;;;;;4150346;28;20025;-80
2021/01/06 10:22:54;;;;;;;17.23;11.25;;;2.90;99.90;;;;;;4178153;28;20051;-80
2021/01/06 10:25:04;;;;;;;16.42;10.77;;;2.90;99.90;;;;;;4177990;28;20040;-80
2021/01/06 10:27:29;;;;;;;16.25;10.50;;;2.90;99.90;;;;;;4177312;28;20032;-80
2021/01/06 10:29:30;;;;;;;17.88;10.05;;;2.90;99.90;;;;;;4174700;28;20048;-80
2021/01/06 10:31:30;;;;;;;15.43;11.38;;;2.90;99.90;;;;;;4178927;28;20507;-80
2021/01/06 10:33:32;;;;;;;14.95;9.43;;;2.90;99.90;;;;;;4160240;28;20029;-81
2021/01/06 10:36:03;;;;;;;17.50;10.35;;;3.00;99.90;;;;;;4155937;28;20584;-80
2021/01/06 10:38:30;;;;;;;19.98;12.23;;;3.00;99.90;;;;;;4178090;28;20040;-79
2021/01/06 10:40:38;;;;;;;19.85;12.57;;;3.00;99.90;;;;;;4165867;28;20048;-85
2021/01/06 10:42:39;;;;;;;18.45;10.70;;;3.00;99.90;;;;;;4161193;28;20037;-84
2021/01/06 10:44:53;;;;;;;15.23;10.77;;;3.00;99.90;;;;;;4153696;28;20124;-85
2021/01/06 10:46:55;;;;;;;15.05;10.48;;;3.00;99.90;;;;;;4178469;28;20455;-84
2021/01/06 10:48:56;;;;;;;17.42;10.07;;;3.10;99.90;;;;;;4178690;28;20029;-84
2021/01/06 10:50:57;;;;;;;11.15;9.27;;;3.10;99.90;;;;;;4161140;28;20123;-84
2021/01/06 10:53:12;;;;;;;14.07;10.05;;;3.00;99.90;;;;;;4178716;28;20503;-85
2021/01/06 10:55:45;;;;;;;13.02;9.82;;;3.10;99.90;;;;;;4178601;28;20034;-85
2021/01/06 10:58:03;;;;;;;16.33;8.48;;;3.10;99.90;;;;;;4157707;28;20030;-84
2021/01/06 11:00:12;;;;;;;17.35;10.38;;;3.10;99.90;;;;;;4178530;28;20562;-84
2021/01/06 11:02:26;;;;;;;14.32;9.70;;;3.10;99.90;;;;;;4179341;28;20171;-85